Time,TemperatureF,DewpointF,PressureIn,WindDirection,WindDirectionDegrees,WindSpeedMPH,WindSpeedGustMPH,Humidity,HourlyPrecipIn,Conditions,Clouds,dailyrainin,SolarRadiationWatts/m^2,SoftwareType,DateUTC
2013-09-17 00:12:00,62.0,40.0,-100.00,NW,311,2.0,7.0,44,0.00,,,0.01,0.000000,,2013-09-17 06:12:00,
2013-09-17 00:22:00,62.0,40.0,-100.00,NW,311,2.0,7.0,44,0.00,,,0.01,0.000000,,2013-09-17 06:22:00,
2013-09-17 00:32:00,62.0,40.0,-100.00,NW,311,2.0,7.0,44,0.00,,,0.01,0.000000,,2013-09-17 06:32:00,
2013-09-17 00:42:00,61.0,45.0,-100.00,ENE,62,5.0,19.0,55,0.00,,,0.00,0.000000,,2013-09-17 06:42:00,
2013-09-17 01:11:00,61.0,45.0,-100.00,ENE,62,5.0,19.0,55,0.00,,,0.00,0.000000,,2013-09-17 07:11:00,
2013-09-17 01:23:00,61.0,45.0,-100.00,ENE,62,5.0,19.0,55,0.00,,,0.00,0.000000,,2013-09-17 07:23:00,
2013-09-17 01:32:00,61.0,45.0,-100.00,ENE,62,5.0,19.0,55,0.00,,,0.00,0.000000,,2013-09-17 07:32:00,
2013-09-17 01:42:00,60.0,45.0,-100.00,NW,314,3.0,12.0,58,0.00,,,0.00,0.000000,,2013-09-17 07:42:00,
2013-09-17 02:12:00,60.0,45.0,-100.00,NW,314,3.0,12.0,58,0.00,,,0.00,0.000000,,2013-09-17 08:12:00,
2013-09-17 02:22:00,60.0,45.0,-100.00,NW,314,3.0,12.0,58,0.00,,,0.00,0.000000,,2013-09-17 08:22:00,
2013-09-17 02:31:00,60.0,45.0,-100.00,NW,314,3.0,12.0,58,0.00,,,0.00,0.000000,,2013-09-17 08:31:00,
2013-09-17 02:42:00,59.0,45.0,-100.00,WSW,253,2.0,9.0,59,0.00,,,0.00,0.000000,,2013-09-17 08:42:00,
2013-09-17 03:12:00,59.0,45.0,-100.00,WSW,253,2.0,9.0,59,0.00,,,0.00,0.000000,,2013-09-17 09:12:00,
2013-09-17 03:22:00,59.0,45.0,-100.00,WSW,253,2.0,9.0,59,0.00,,,0.00,0.000000,,2013-09-17 09:22:00,
2013-09-17 03:33:00,59.0,45.0,-100.00,WSW,253,2.0,9.0,59,0.00,,,0.00,0.000000,,2013-09-17 09:33:00,
2013-09-17 03:42:00,58.0,44.0,-100.00,WNW,287,3.0,14.0,59,0.00,,,0.00,0.000000,,2013-09-17 09:42:00,
2013-09-17 04:12:00,58.0,44.0,-100.00,WNW,287,3.0,14.0,59,0.00,,,0.00,0.000000,,2013-09-17 10:12:00,
2013-09-17 04:23:00,58.0,44.0,-100.00,WNW,287,3.0,14.0,59,0.00,,,0.00,0.000000,,2013-09-17 10:23:00,
2013-09-17 04:32:00,58.0,44.0,-100.00,WNW,287,3.0,14.0,59,0.00,,,0.00,0.000000,,2013-09-17 10:32:00,
2013-09-17 04:42:00,57.0,44.0,-100.00,North,9,2.0,13.0,62,0.00,,,0.00,0.000000,,2013-09-17 10:42:00,
2013-09-17 05:11:00,57.0,44.0,-100.00,North,9,2.0,13.0,62,0.00,,,0.00,0.000000,,2013-09-17 11:11:00,
2013-09-17 05:22:00,57.0,44.0,-100.00,North,9,2.0,13.0,62,0.00,,,0.00,0.000000,,2013-09-17 11:22:00,
2013-09-17 05:33:00,57.0,44.0,-100.00,North,9,2.0,13.0,62,0.00,,,0.00,0.000000,,2013-09-17 11:33:00,
2013-09-17 05:42:00,56.0,43.0,-100.00,North,350,4.0,14.0,62,0.00,,,0.00,0.000000,,2013-09-17 11:42:00,
2013-09-17 06:12:00,56.0,43.0,-100.00,North,350,4.0,14.0,62,0.00,,,0.00,0.000000,,2013-09-17 12:12:00,
2013-09-17 06:21:00,56.0,43.0,-100.00,North,350,4.0,14.0,62,0.00,,,0.00,0.000000,,2013-09-17 12:21:00,
2013-09-17 06:32:00,56.0,43.0,-100.00,North,350,4.0,14.0,62,0.00,,,0.00,0.000000,,2013-09-17 12:32:00,
2013-09-17 06:42:00,57.0,44.0,-100.00,WSW,256,4.0,18.0,61,0.00,,,0.00,0.000000,,2013-09-17 12:42:00,
2013-09-17 07:11:00,57.0,44.0,-100.00,WSW,256,4.0,18.0,61,0.00,,,0.00,0.000000,,2013-09-17 13:11:00,
2013-09-17 07:22:00,57.0,44.0,-100.00,WSW,256,4.0,18.0,61,0.00,,,0.00,0.000000,,2013-09-17 13:22:00,
2013-09-17 07:32:00,57.0,44.0,-100.00,WSW,256,4.0,18.0,61,0.00,,,0.00,0.000000,,2013-09-17 13:32:00,
2013-09-17 07:42:00,58.0,44.0,-100.00,ENE,75,7.0,19.0,59,0.00,,,0.00,0.000000,,2013-09-17 13:42:00,
2013-09-17 08:11:00,58.0,44.0,-100.00,ENE,75,7.0,19.0,59,0.00,,,0.00,0.000000,,2013-09-17 14:11:00,
2013-09-17 08:21:00,58.0,44.0,-100.00,ENE,75,7.0,19.0,59,0.00,,,0.00,0.000000,,2013-09-17 14:21:00,
2013-09-17 08:32:00,58.0,44.0,-100.00,ENE,75,7.0,19.0,59,0.00,,,0.00,0.000000,,2013-09-17 14:32:00,
2013-09-17 08:42:00,58.0,43.0,-100.00,NNW,343,7.0,24.0,58,0.00,,,0.00,29.000000,,2013-09-17 14:42:00,
2013-09-17 09:11:00,58.0,43.0,-100.00,NNW,343,7.0,24.0,58,0.00,,,0.00,29.000000,,2013-09-17 15:11:00,
2013-09-17 09:22:00,58.0,43.0,-100.00,NNW,343,7.0,24.0,58,0.00,,,0.00,29.000000,,2013-09-17 15:22:00,
2013-09-17 09:34:00,58.0,43.0,-100.00,NNW,343,7.0,24.0,58,0.00,,,0.00,29.000000,,2013-09-17 15:34:00,
2013-09-17 09:42:00,60.0,43.0,-100.00,North,1,4.0,17.0,54,0.00,,,0.00,105.000000,,2013-09-17 15:42:00,
2013-09-17 10:13:00,60.0,43.0,-100.00,North,1,4.0,17.0,54,0.00,,,0.00,105.000000,,2013-09-17 16:13:00,
2013-09-17 10:23:00,60.0,43.0,-100.00,North,1,4.0,17.0,54,0.00,,,0.00,105.000000,,2013-09-17 16:23:00,
2013-09-17 10:32:00,60.0,43.0,-100.00,North,1,4.0,17.0,54,0.00,,,0.00,105.000000,,2013-09-17 16:32:00,
2013-09-17 10:42:00,60.0,44.0,-100.00,NW,325,5.0,15.0,56,0.00,,,0.00,168.000000,,2013-09-17 16:42:00,
2013-09-17 11:12:00,60.0,44.0,-100.00,NW,325,5.0,15.0,56,0.00,,,0.00,168.000000,,2013-09-17 17:12:00,
2013-09-17 11:23:00,60.0,44.0,-100.00,NW,325,5.0,15.0,56,0.00,,,0.00,168.000000,,2013-09-17 17:23:00,
2013-09-17 11:34:00,60.0,44.0,-100.00,NW,325,5.0,15.0,56,0.00,,,0.00,168.000000,,2013-09-17 17:34:00,
2013-09-17 11:42:00,65.0,45.0,-100.00,ENE,62,4.0,11.0,48,0.00,,,0.00,384.000000,,2013-09-17 17:42:00,
2013-09-17 12:12:00,65.0,45.0,-100.00,ENE,62,4.0,11.0,48,0.00,,,0.00,384.000000,,2013-09-17 18:12:00,
2013-09-17 12:21:00,65.0,45.0,-100.00,ENE,62,4.0,11.0,48,0.00,,,0.00,384.000000,,2013-09-17 18:21:00,
2013-09-17 12:32:00,65.0,45.0,-100.00,ENE,62,4.0,11.0,48,0.00,,,0.00,384.000000,,2013-09-17 18:32:00,
2013-09-17 12:42:00,68.0,44.0,-100.00,South,191,6.0,14.0,42,0.00,,,0.00,385.000000,,2013-09-17 18:42:00,
2013-09-17 13:11:00,68.0,44.0,-100.00,South,191,6.0,14.0,42,0.00,,,0.00,385.000000,,2013-09-17 19:11:00,
2013-09-17 13:21:00,68.0,44.0,-100.00,South,191,6.0,14.0,42,0.00,,,0.00,385.000000,,2013-09-17 19:21:00,
2013-09-17 13:32:00,68.0,44.0,-100.00,South,191,6.0,14.0,42,0.00,,,0.00,385.000000,,2013-09-17 19:32:00,
2013-09-17 13:42:00,68.0,45.0,-100.00,South,183,6.0,12.0,43,0.00,,,0.00,388.000000,,2013-09-17 19:42:00,
2013-09-17 14:11:00,68.0,45.0,-100.00,South,183,6.0,12.0,43,0.00,,,0.00,388.000000,,2013-09-17 20:11:00,
2013-09-17 14:22:00,68.0,45.0,-100.00,South,183,6.0,12.0,43,0.00,,,0.00,388.000000,,2013-09-17 20:22:00,
2013-09-17 14:32:00,68.0,45.0,-100.00,South,183,6.0,12.0,43,0.00,,,0.00,388.000000,,2013-09-17 20:32:00,
2013-09-17 14:42:00,68.0,43.0,-100.00,SSW,193,9.0,15.0,41,0.00,,,0.00,329.000000,,2013-09-17 20:42:00,
2013-09-17 15:12:00,68.0,43.0,-100.00,SSW,193,9.0,15.0,41,0.00,,,0.00,329.000000,,2013-09-17 21:12:00,
2013-09-17 15:22:00,68.0,43.0,-100.00,SSW,193,9.0,15.0,41,0.00,,,0.00,329.000000,,2013-09-17 21:22:00,
2013-09-17 15:34:00,68.0,43.0,-100.00,SSW,193,9.0,15.0,41,0.00,,,0.00,329.000000,,2013-09-17 21:34:00,
2013-09-17 15:42:00,68.0,43.0,-100.00,South,182,10.0,17.0,40,0.00,,,0.00,398.000000,,2013-09-17 21:42:00,
2013-09-17 16:13:00,68.0,43.0,-100.00,South,182,10.0,17.0,40,0.00,,,0.00,398.000000,,2013-09-17 22:13:00,
2013-09-17 16:24:00,68.0,43.0,-100.00,South,182,10.0,17.0,40,0.00,,,0.00,398.000000,,2013-09-17 22:24:00,
2013-09-17 16:33:00,68.0,43.0,-100.00,South,182,10.0,17.0,40,0.00,,,0.00,398.000000,,2013-09-17 22:33:00,
2013-09-17 16:42:00,67.0,44.0,-100.00,SSW,194,9.0,17.0,43,0.00,,,0.00,360.000000,,2013-09-17 22:42:00,
2013-09-17 17:12:00,67.0,44.0,-100.00,SSW,194,9.0,17.0,43,0.00,,,0.00,360.000000,,2013-09-17 23:12:00,
2013-09-17 17:21:00,67.0,44.0,-100.00,SSW,194,9.0,17.0,43,0.00,,,0.00,360.000000,,2013-09-17 23:21:00,
2013-09-17 17:34:00,67.0,44.0,-100.00,SSW,194,9.0,17.0,43,0.00,,,0.00,360.000000,,2013-09-17 23:34:00,
2013-09-17 17:42:00,63.0,48.0,-100.00,SSE,162,7.0,15.0,57,0.01,,,0.01,75.000000,,2013-09-17 23:42:00,
2013-09-17 18:11:00,63.0,48.0,-100.00,SSE,162,7.0,15.0,57,0.01,,,0.01,75.000000,,2013-09-18 00:11:00,
2013-09-17 18:22:00,63.0,48.0,-100.00,SSE,162,7.0,15.0,57,0.01,,,0.01,75.000000,,2013-09-18 00:22:00,
2013-09-17 18:32:00,63.0,48.0,-100.00,SSE,162,7.0,15.0,57,0.01,,,0.01,75.000000,,2013-09-18 00:32:00,
2013-09-17 18:42:00,61.0,49.0,-100.00,SE,124,1.0,20.0,64,0.00,,,0.01,160.000000,,2013-09-18 00:42:00,
2013-09-17 19:11:00,61.0,49.0,-100.00,SE,124,1.0,20.0,64,0.00,,,0.01,160.000000,,2013-09-18 01:11:00,
2013-09-17 19:21:00,61.0,49.0,-100.00,SE,124,1.0,20.0,64,0.00,,,0.01,160.000000,,2013-09-18 01:21:00,
2013-09-17 19:32:00,61.0,49.0,-100.00,SE,124,1.0,20.0,64,0.00,,,0.01,160.000000,,2013-09-18 01:32:00,
2013-09-17 19:42:00,58.0,45.0,-100.00,NNW,332,15.0,21.0,61,0.00,,,0.01,35.000000,,2013-09-18 01:42:00,
2013-09-17 20:11:00,58.0,45.0,-100.00,NNW,332,15.0,21.0,61,0.00,,,0.01,35.000000,,2013-09-18 02:11:00,
2013-09-17 20:22:00,58.0,45.0,-100.00,NNW,332,15.0,21.0,61,0.00,,,0.01,35.000000,,2013-09-18 02:22:00,
2013-09-17 20:32:00,58.0,45.0,-100.00,NNW,332,15.0,21.0,61,0.00,,,0.01,35.000000,,2013-09-18 02:32:00,
2013-09-17 20:42:00,53.0,43.0,-100.00,NNW,338,10.0,28.0,69,0.00,,,0.01,1.000000,,2013-09-18 02:42:00,
2013-09-17 21:11:00,53.0,43.0,-100.00,NNW,338,10.0,28.0,69,0.00,,,0.01,1.000000,,2013-09-18 03:11:00,
2013-09-17 21:23:00,53.0,43.0,-100.00,NNW,338,10.0,28.0,69,0.00,,,0.01,1.000000,,2013-09-18 03:23:00,
2013-09-17 21:35:00,53.0,43.0,-100.00,NNW,338,10.0,28.0,69,0.00,,,0.01,1.000000,,2013-09-18 03:35:00,
2013-09-17 21:42:00,52.0,45.0,-100.00,SW,232,1.0,16.0,77,0.01,,,0.02,0.000000,,2013-09-18 03:42:00,
2013-09-17 22:14:00,52.0,45.0,-100.00,SW,232,1.0,16.0,77,0.01,,,0.02,0.000000,,2013-09-18 04:14:00,
2013-09-17 22:24:00,52.0,45.0,-100.00,SW,232,1.0,16.0,77,0.01,,,0.02,0.000000,,2013-09-18 04:24:00,
2013-09-17 22:33:00,52.0,45.0,-100.00,SW,232,1.0,16.0,77,0.01,,,0.02,0.000000,,2013-09-18 04:33:00,
2013-09-17 22:42:00,52.0,44.0,-100.00,SSW,199,0.0,4.0,75,0.00,,,0.02,0.000000,,2013-09-18 04:42:00,
2013-09-17 23:13:00,52.0,44.0,-100.00,SSW,199,0.0,4.0,75,0.00,,,0.02,0.000000,,2013-09-18 05:13:00,
2013-09-17 23:23:00,52.0,44.0,-100.00,SSW,199,0.0,4.0,75,0.00,,,0.02,0.000000,,2013-09-18 05:23:00,
2013-09-17 23:33:00,52.0,44.0,-100.00,SSW,199,0.0,4.0,75,0.00,,,0.02,0.000000,,2013-09-18 05:33:00,
2013-09-17 23:42:00,51.0,45.0,-100.00,ENE,68,3.0,4.0,79,0.00,,,0.02,0.000000,,2013-09-18 05:42:00,